Time;durP1;ratioP1;P1;durP2;ratioP2;P2;SDS_P1;SDS_P2;PMS_P1;PMS_P2;Temp;Humidity;BMP_temperature;BMP_pressure;BME280_temperature;BME280_humidity;BME280_pressure;Samples;Min_cycle;Max_cycle;Signal;HPM_P1;HPM_P2
2022/05/19 00:01:26;;;;;;;11.18;8.90;;;;;;;18.35;67.66;101674.78;5110820;27;20071;-73
2022/05/19 00:03:52;;;;;;;15.73;9.82;;;;;;;18.05;68.32;101683.06;5106755;27;20043;-73
2022/05/19 00:06:19;;;;;;;15.18;9.40;;;;;;;18.06;68.51;101681.25;5106373;28;20069;-73
2022/05/19 00:08:46;;;;;;;13.75;9.25;;;;;;;17.93;69.05;101676.78;5106128;28;20063;-73
2022/05/19 00:11:16;;;;;;;17.10;9.82;;;;;;;17.91;69.19;101675.19;5107343;28;20566;-73
2022/05/19 00:13:44;;;;;;;15.43;9.43;;;;;;;17.76;69.36;101677.06;5106919;28;20129;-74
2022/05/19 00:16:11;;;;;;;13.45;10.05;;;;;;;17.59;70.25;101685.28;5107616;28;20052;-73
2022/05/19 00:18:38;;;;;;;13.60;9.82;;;;;;;17.58;70.13;101667.69;5117275;27;20212;-73
2022/05/19 00:21:05;;;;;;;15.48;10.82;;;;;;;17.55;70.89;101672.31;5104589;27;20047;-73
2022/05/19 00:23:32;;;;;;;14.95;9.82;;;;;;;17.91;69.50;101673.38;5106769;27;21832;-73
2022/05/19 00:25:58;;;;;;;15.93;10.05;;;;;;;17.76;70.40;101668.25;5106473;28;20040;-73
2022/05/19 00:28:26;;;;;;;15.40;10.52;;;;;;;17.69;70.68;101672.28;5106051;28;20075;-73
2022/05/19 00:30:52;;;;;;;12.77;9.95;;;;;;;17.71;70.63;101671.19;5105921;28;20116;-73
2022/05/19 00:33:18;;;;;;;13.80;10.02;;;;;;;18.08;68.78;101658.94;5104582;27;20078;-73
2022/05/19 00:35:45;;;;;;;11.48;10.15;;;;;;;17.75;69.73;101667.41;5107508;27;20564;-73
2022/05/19 00:38:11;;;;;;;14.13;11.10;;;;;;;17.76;70.09;101662.94;5106273;27;20398;-73
2022/05/19 00:40:38;;;;;;;15.60;10.43;;;;;;;17.63;70.31;101662.91;5106007;28;20415;-73
2022/05/19 00:43:05;;;;;;;12.20;10.52;;;;;;;17.68;70.21;101659.94;5107034;28;20491;-73
2022/05/19 00:45:42;;;;;;;15.35;9.88;;;;;;;17.74;69.64;101660.38;5106101;28;20073;-73
2022/05/19 00:48:16;;;;;;;13.30;10.10;;;;;;;17.77;69.58;101668.16;5106490;27;20050;-73
2022/05/19 00:50:45;;;;;;;12.48;10.07;;;;;;;17.72;69.38;101659.66;5106504;28;20095;-73
2022/05/19 00:53:16;;;;;;;14.15;10.52;;;;;;;17.91;68.78;101667.22;5110555;27;20048;-73
2022/05/19 00:55:45;;;;;;;13.73;10.50;;;;;;;18.02;68.28;101656.72;5105181;27;20082;-73
2022/05/19 00:58:15;;;;;;;19.55;10.75;;;;;;;18.04;68.67;101651.31;5128139;27;20043;-73
2022/05/19 01:00:45;;;;;;;13.95;11.43;;;;;;;17.91;68.76;101662.78;5105239;27;20092;-73
2022/05/19 01:03:15;;;;;;;20.42;12.20;;;;;;;18.07;67.95;101651.94;5110889;27;20047;-73
2022/05/19 01:05:45;;;;;;;14.27;10.77;;;;;;;18.08;67.56;101652.78;5109335;27;20465;-73
2022/05/19 01:08:16;;;;;;;17.23;11.25;;;;;;;18.12;67.55;101654.28;5109257;27;20057;-73
2022/05/19 01:10:43;;;;;;;13.75;10.85;;;;;;;18.16;67.86;101653.13;5108279;27;20093;-73
2022/05/19 01:13:11;;;;;;;15.23;10.85;;;;;;;17.83;68.70;101654.47;5108921;28;20415;-73
2022/05/19 01:15:40;;;;;;;15.05;11.43;;;;;;;17.83;68.58;101653.63;5112548;28;20044;-73
2022/05/19 01:18:10;;;;;;;14.57;11.98;;;;;;;17.68;69.29;101654.66;5113444;27;20114;-73
2022/05/19 01:20:37;;;;;;;17.23;11.52;;;;;;;17.74;69.17;101654.22;5112618;28;20077;-73
2022/05/19 01:23:11;;;;;;;14.75;11.85;;;;;;;17.57;69.18;101650.06;5113660;27;20101;-73
2022/05/19 01:25:48;;;;;;;13.55;11.55;;;;;;;17.60;68.91;101654.31;5114518;27;20039;-72
2022/05/19 01:28:16;;;;;;;15.85;12.07;;;;;;;17.59;69.54;101656.09;5132536;28;20028;-72
2022/05/19 01:30:43;;;;;;;14.60;12.00;;;;;;;17.53;69.30;101657.34;5135818;27;20452;-73
2022/05/19 01:33:10;;;;;;;17.35;11.57;;;;;;;17.33;69.55;101649.00;5128764;27;20469;-73
2022/05/19 01:35:36;;;;;;;17.98;12.43;;;;;;;17.34;70.40;101650.69;5119630;27;20124;-73
2022/05/19 01:38:07;;;;;;;17.38;12.77;;;;;;;17.39;70.52;101648.59;5120660;27;20040;-73
2022/05/19 01:40:49;;;;;;;18.77;13.18;;;;;;;17.31;70.49;101649.09;5117309;27;20069;-73
2022/05/19 01:43:26;;;;;;;17.10;13.77;;;;;;;17.28;71.55;101643.13;5116319;28;20047;-73
2022/05/19 01:46:04;;;;;;;16.30;13.43;;;;;;;17.33;71.02;101639.22;5113733;27;20499;-72
2022/05/19 01:48:38;;;;;;;20.13;13.52;;;;;;;17.16;71.36;101639.47;5113747;27;20043;-72
2022/05/19 01:51:10;;;;;;;18.80;13.73;;;;;;;16.86;72.65;101649.41;5115235;27;20097;-73
2022/05/19 01:53:42;;;;;;;18.80;13.43;;;;;;;16.83;73.14;101649.59;5114447;27;20073;-72
2022/05/19 01:56:13;;;;;;;20.58;14.00;;;;;;;16.55;74.62;101656.56;5114808;28;20400;-73
2022/05/19 01:58:46;;;;;;;16.55;13.60;;;;;;;16.76;73.54;101645.63;5113421;27;20044;-72
2022/05/19 02:01:14;;;;;;;18.50;12.68;;;;;;;16.73;73.50;101637.88;5107569;27;20044;-73
2022/05/19 02:03:48;;;;;;;17.73;14.02;;;;;;;16.78;73.21;101641.06;5113101;27;20047;-72
2022/05/19 02:06:20;;;;;;;17.65;14.55;;;;;;;16.52;74.80;101640.03;5114236;27;20047;-73
2022/05/19 02:08:51;;;;;;;19.30;14.13;;;;;;;16.58;74.52;101649.44;5113354;27;20046;-73
2022/05/19 02:11:23;;;;;;;21.17;13.75;;;;;;;16.37;74.18;101648.94;5115014;27;20466;-73
2022/05/19 02:13:52;;;;;;;17.17;13.13;;;;;;;16.54;74.36;101656.69;5113812;27;20043;-73
2022/05/19 02:16:20;;;;;;;18.77;14.80;;;;;;;16.65;73.50;101653.41;5114229;27;20051;-73
2022/05/19 02:18:49;;;;;;;19.52;15.80;;;;;;;16.44;74.51;101643.16;5113113;28;20070;-72
2022/05/19 02:21:18;;;;;;;20.25;14.98;;;;;;;16.47;74.51;101650.06;5113800;28;20073;-73
2022/05/19 02:23:46;;;;;;;20.33;16.13;;;;;;;16.19;75.66;101650.88;5115525;27;20043;-73
2022/05/19 02:26:12;;;;;;;17.70;14.52;;;;;;;16.14;75.67;101646.84;5113895;27;20040;-73
2022/05/19 02:28:45;;;;;;;22.63;16.27;;;;;;;16.28;75.23;101646.84;5112954;28;20065;-73
2022/05/19 02:31:12;;;;;;;19.35;15.25;;;;;;;16.01;76.53;101650.22;5113122;27;20216;-73
2022/05/19 02:33:39;;;;;;;20.25;16.33;;;;;;;15.94;76.87;101643.59;5113101;27;20461;-73
2022/05/19 02:36:06;;;;;;;19.17;15.27;;;;;;;16.09;75.95;101649.75;5112650;27;20039;-73
2022/05/19 02:38:33;;;;;;;20.30;15.27;;;;;;;16.04;75.94;101643.88;5111795;27;20056;-73
2022/05/19 02:40:59;;;;;;;19.10;15.55;;;;;;;16.17;75.82;101642.22;5110841;27;20052;-73
2022/05/19 02:43:25;;;;;;;19.83;16.00;;;;;;;16.42;73.94;101638.91;5108489;28;20480;-73
2022/05/19 02:45:52;;;;;;;18.30;14.50;;;;;;;16.79;72.60;101642.78;5113122;28;20420;-73
2022/05/19 02:48:20;;;;;;;18.58;15.40;;;;;;;16.32;74.16;101643.94;5112272;27;20051;-73
2022/05/19 02:50:49;;;;;;;20.25;15.55;;;;;;;16.27;75.12;101646.00;5111689;27;20487;-73
2022/05/19 02:53:16;;;;;;;18.25;15.55;;;;;;;16.28;74.21;101641.56;5111910;27;20476;-73
2022/05/19 02:55:43;;;;;;;19.92;15.27;;;;;;;16.31;74.08;101644.88;5113285;27;20100;-73
2022/05/19 02:58:10;;;;;;;20.98;15.15;;;;;;;16.02;75.89;101648.41;5113502;27;20051;-73
2022/05/19 03:00:37;;;;;;;19.33;15.10;;;;;;;16.41;73.63;101646.00;5112097;27;20054;-73
2022/05/19 03:03:04;;;;;;;25.05;15.07;;;;;;;16.38;74.00;101637.38;5109001;27;20058;-74
2022/05/19 03:05:34;;;;;;;21.40;14.48;;;;;;;16.48;74.07;101643.84;5115343;27;20047;-73
2022/05/19 03:08:00;;;;;;;19.45;15.07;;;;;;;16.53;73.78;101641.75;5112497;27;20048;-73
2022/05/19 03:10:27;;;;;;;17.10;14.27;;;;;;;16.31;73.68;101642.22;5111006;27;20044;-74
2022/05/19 03:12:55;;;;;;;18.60;14.77;;;;;;;16.03;75.99;101637.75;5112500;28;20043;-73
2022/05/19 03:15:22;;;;;;;22.25;14.68;;;;;;;16.48;74.13;101638.53;5112358;28;20523;-73
2022/05/19 03:17:48;;;;;;;16.55;14.13;;;;;;;16.80;72.44;101634.75;5112160;27;20102;-73
2022/05/19 03:20:15;;;;;;;20.90;13.82;;;;;;;16.97;71.78;101634.53;5111792;28;20124;-73
2022/05/19 03:22:43;;;;;;;15.30;13.35;;;;;;;16.43;73.53;101641.47;5107277;27;20227;-73
2022/05/19 03:25:10;;;;;;;16.90;13.40;;;;;;;16.89;72.02;101628.00;5110882;27;20047;-74
2022/05/19 03:27:38;;;;;;;15.52;13.82;;;;;;;16.97;71.77;101637.16;5110511;27;20055;-73
2022/05/19 03:30:06;;;;;;;21.08;14.25;;;;;;;16.86;72.52;101636.16;5107792;27;20060;-73
2022/05/19 03:32:33;;;;;;;17.77;13.50;;;;;;;16.52;74.00;101635.59;5111326;28;20047;-73
2022/05/19 03:34:59;;;;;;;16.88;14.02;;;;;;;16.39;73.88;101639.94;5111128;28;20055;-73
2022/05/19 03:37:26;;;;;;;18.85;13.80;;;;;;;16.18;74.33;101635.13;5111079;28;20073;-73
2022/05/19 03:39:54;;;;;;;17.20;14.43;;;;;;;16.17;75.55;101634.28;5109893;27;20063;-73
2022/05/19 03:42:21;;;;;;;21.85;14.40;;;;;;;16.37;74.07;101630.41;5110804;27;20047;-74
2022/05/19 03:44:47;;;;;;;18.40;14.50;;;;;;;16.37;74.23;101631.25;5102605;28;20096;-73
2022/05/19 03:47:14;;;;;;;22.95;14.27;;;;;;;16.87;72.23;101630.75;5111173;28;20636;-73
2022/05/19 03:49:40;;;;;;;15.73;13.43;;;;;;;16.55;73.64;101635.38;5110778;28;20047;-73
2022/05/19 03:52:07;;;;;;;16.63;13.27;;;;;;;16.95;72.21;101633.78;5109817;27;20048;-73
2022/05/19 03:54:33;;;;;;;20.73;12.90;;;;;;;17.03;72.54;101635.94;5110768;28;20044;-73
2022/05/19 03:57:01;;;;;;;15.57;12.80;;;;;;;17.03;72.31;101628.00;5110487;28;20044;-73
2022/05/19 03:59:28;;;;;;;18.55;13.18;;;;;;;16.95;72.46;101628.47;5109170;27;20047;-73
2022/05/19 04:01:54;;;;;;;18.48;13.15;;;;;;;17.61;69.47;101627.69;5109674;27;20093;-73
2022/05/19 04:04:20;;;;;;;14.25;12.55;;;;;;;17.49;70.01;101626.66;5110004;27;20069;-73
2022/05/19 04:06:47;;;;;;;16.23;12.90;;;;;;;17.04;71.58;101627.88;5111552;27;20072;-72
2022/05/19 04:09:13;;;;;;;19.67;12.57;;;;;;;17.25;70.96;101628.28;5109152;28;20094;-72
2022/05/19 04:11:40;;;;;;;15.35;12.20;;;;;;;16.69;73.26;101631.94;5109231;28;20043;-72
2022/05/19 04:14:09;;;;;;;16.77;12.40;;;;;;;16.98;72.19;101632.72;5108753;28;20039;-72
2022/05/19 04:16:35;;;;;;;19.55;12.77;;;;;;;17.17;71.48;101640.34;5109201;28;20130;-73
2022/05/19 04:19:02;;;;;;;16.83;12.15;;;;;;;17.29;71.31;101628.94;5109123;28;20051;-72
2022/05/19 04:21:28;;;;;;;16.15;11.88;;;;;;;17.43;70.95;101631.53;5114412;27;20067;-72
2022/05/19 04:23:54;;;;;;;18.52;11.88;;;;;;;17.88;69.44;101630.28;5109102;27;20105;-73
2022/05/19 04:26:21;;;;;;;18.38;12.13;;;;;;;17.70;69.90;101637.66;5108501;27;20048;-72
2022/05/19 04:28:47;;;;;;;17.70;12.07;;;;;;;17.48;69.89;101640.00;5108544;27;20131;-72
2022/05/19 04:31:15;;;;;;;17.20;12.07;;;;;;;17.58;69.89;101646.47;5107918;27;20047;-72
2022/05/19 04:33:41;;;;;;;17.00;12.05;;;;;;;17.89;70.16;101643.44;5110550;27;20047;-72
2022/05/19 04:36:08;;;;;;;14.10;11.63;;;;;;;18.19;69.16;101644.94;5109435;28;22743;-73
2022/05/19 04:38:35;;;;;;;13.45;11.68;;;;;;;17.94;69.31;101636.03;5108744;28;20089;-72
2022/05/19 04:41:04;;;;;;;14.63;11.18;;;;;;;17.71;70.19;101633.22;5108241;28;20070;-72
2022/05/19 04:43:30;;;;;;;17.00;11.40;;;;;;;18.38;67.80;101629.44;5108523;28;20101;-73
2022/05/19 04:45:57;;;;;;;14.82;11.00;;;;;;;17.88;69.50;101641.75;5108726;28;20583;-73
2022/05/19 04:48:26;;;;;;;21.00;11.45;;;;;;;17.56;70.64;101635.06;5108788;28;20044;-73
2022/05/19 04:50:53;;;;;;;16.98;11.70;;;;;;;18.08;69.47;101637.72;5111028;27;20063;-72
2022/05/19 04:53:20;;;;;;;13.10;10.45;;;;;;;18.31;68.54;101642.28;5112218;27;20101;-72
2022/05/19 04:55:47;;;;;;;16.08;11.50;;;;;;;18.54;67.49;101645.19;5113007;27;20645;-74
2022/05/19 04:58:13;;;;;;;15.80;12.32;;;;;;;18.53;67.73;101648.78;5112020;27;20453;-72
2022/05/19 05:00:57;;;;;;;14.90;10.95;;;;;;;18.71;67.67;101650.13;5111767;27;20044;-72
2022/05/19 05:03:25;;;;;;;13.70;11.10;;;;;;;18.24;68.40;101649.00;5139390;27;20134;-73
2022/05/19 05:05:51;;;;;;;13.63;10.73;;;;;;;18.24;69.22;101645.47;5132746;27;20039;-73
2022/05/19 05:08:18;;;;;;;17.30;11.55;;;;;;;18.69;67.74;101649.41;5133314;27;20388;-72
2022/05/19 05:10:44;;;;;;;12.80;10.75;;;;;;;18.94;67.73;101647.53;5118050;27;20043;-73
2022/05/19 05:13:13;;;;;;;13.70;10.55;;;;;;;19.33;66.03;101657.06;5112305;28;20136;-73
2022/05/19 05:15:40;;;;;;;13.93;10.55;;;;;;;19.42;65.38;101652.91;5112378;27;20039;-73
2022/05/19 05:18:07;;;;;;;11.13;9.82;;;;;;;18.90;67.43;101648.72;5112291;27;20509;-72
2022/05/19 05:20:37;;;;;;;15.13;10.20;;;;;;;18.30;69.03;101653.88;5111045;27;20108;-72
2022/05/19 05:23:03;;;;;;;13.15;9.75;;;;;;;19.05;67.86;101648.56;5111741;27;20035;-72
2022/05/19 05:25:31;;;;;;;14.30;10.13;;;;;;;18.70;68.26;101661.75;5112321;27;20108;-73
2022/05/19 05:27:58;;;;;;;16.83;10.02;;;;;;;18.40;69.23;101664.72;5112286;27;20043;-73
2022/05/19 05:30:25;;;;;;;12.90;9.98;;;;;;;18.56;69.77;101661.84;5115233;27;20052;-73
2022/05/19 05:32:51;;;;;;;14.55;9.73;;;;;;;18.41;69.60;101667.25;5111768;28;20043;-73
2022/05/19 05:35:18;;;;;;;11.15;9.80;;;;;;;18.51;69.87;101667.50;5111918;28;20552;-73
2022/05/19 05:37:46;;;;;;;15.07;10.25;;;;;;;19.61;65.50;101663.03;5111363;28;20499;-75
2022/05/19 05:40:13;;;;;;;16.15;10.57;;;;;;;19.06;67.16;101663.56;5110277;27;20047;-74
2022/05/19 05:42:40;;;;;;;12.48;9.13;;;;;;;20.07;65.40;101661.22;5112229;27;20575;-74
2022/05/19 05:45:09;;;;;;;10.70;9.00;;;;;;;19.81;65.88;101665.03;5124802;27;20043;-73
2022/05/19 05:47:35;;;;;;;11.52;8.85;;;;;;;19.66;65.44;101660.88;5111312;28;20093;-73
2022/05/19 05:50:01;;;;;;;15.80;8.43;;;;;;;19.29;65.93;101668.06;5110802;28;20459;-73
2022/05/19 05:52:28;;;;;;;15.52;8.50;;;;;;;19.10;68.18;101665.91;5109386;27;20052;-73
2022/05/19 05:54:58;;;;;;;13.85;8.52;;;;;;;19.47;65.48;101671.19;5111144;27;20044;-73
2022/05/19 05:57:25;;;;;;;12.88;7.68;;;;;;;19.24;66.04;101663.06;5119982;27;20047;-73
2022/05/19 05:59:51;;;;;;;15.90;8.18;;;;;;;19.36;65.92;101675.44;5114493;27;20168;-74
2022/05/19 06:02:18;;;;;;;11.40;8.43;;;;;;;19.95;65.18;101656.88;5111583;27;20051;-74
2022/05/19 06:04:44;;;;;;;8.82;7.30;;;;;;;20.83;61.10;101666.78;5110938;27;20092;-74
2022/05/19 06:07:11;;;;;;;10.07;8.45;;;;;;;20.66;61.65;101661.91;5111029;27;20055;-74
2022/05/19 06:09:37;;;;;;;11.05;7.57;;;;;;;20.92;62.78;101677.66;5110298;27;20102;-74
2022/05/19 06:12:06;;;;;;;11.25;7.18;;;;;;;20.65;61.55;101675.38;5110134;27;20461;-74
2022/05/19 06:14:33;;;;;;;14.95;7.88;;;;;;;20.74;62.03;101667.50;5110504;27;20061;-74
2022/05/19 06:16:59;;;;;;;12.27;7.57;;;;;;;21.46;59.30;101672.38;5111133;27;20043;-74
2022/05/19 06:19:25;;;;;;;12.90;7.60;;;;;;;21.10;61.31;101662.88;5109762;28;20093;-71
2022/05/19 06:21:52;;;;;;;10.05;7.18;;;;;;;20.93;63.07;101664.22;5112425;27;20071;-73
2022/05/19 06:24:18;;;;;;;10.35;7.22;;;;;;;21.19;60.77;101662.97;5110977;27;20100;-73
2022/05/19 06:26:44;;;;;;;9.80;7.22;;;;;;;21.29;60.55;101661.25;5110817;27;20043;-74
2022/05/19 06:29:12;;;;;;;10.20;7.00;;;;;;;21.52;59.94;101655.84;5109500;27;20647;-73
2022/05/19 06:31:39;;;;;;;11.23;6.60;;;;;;;22.01;60.59;101664.13;5110130;27;20059;-73
2022/05/19 06:34:05;;;;;;;17.77;6.93;;;;;;;22.33;57.68;101656.88;5109979;28;20495;-73
2022/05/19 06:36:32;;;;;;;11.27;7.25;;;;;;;22.89;56.84;101659.09;5109598;27;20048;-74
2022/05/19 06:38:58;;;;;;;11.13;6.50;;;;;;;22.48;57.61;101656.50;5109595;27;20392;-74
2022/05/19 06:44:09;;;;;;;7.90;5.97;;;;;;;22.69;56.88;101655.50;5109947;27;20059;-74
2022/05/19 06:46:36;;;;;;;11.40;6.93;;;;;;;22.95;55.76;101655.03;5110235;27;20051;-74
2022/05/19 06:49:04;;;;;;;7.85;6.22;;;;;;;23.57;55.75;101652.06;5119554;27;20041;-74
2022/05/19 06:51:31;;;;;;;11.73;6.72;;;;;;;23.24;53.79;101650.59;5118290;27;20044;-74
2022/05/19 06:53:58;;;;;;;9.00;6.45;;;;;;;23.36;53.91;101651.28;5108239;27;20047;-74
2022/05/19 06:56:24;;;;;;;13.57;6.50;;;;;;;22.36;56.39;101644.22;5130953;27;20047;-74
2022/05/19 06:58:51;;;;;;;8.95;6.20;;;;;;;23.29;55.51;101645.66;5119231;27;20039;-74
2022/05/19 07:01:17;;;;;;;9.80;6.03;;;;;;;24.08;52.99;101627.59;5110240;27;20048;-75
2022/05/19 07:03:45;;;;;;;9.10;5.97;;;;;;;24.33;54.02;101642.22;5110264;27;20055;-75
2022/05/19 07:06:11;;;;;;;10.02;5.93;;;;;;;24.17;51.98;101649.03;5109620;27;20434;-74
2022/05/19 07:08:38;;;;;;;8.20;5.82;;;;;;;24.80;52.57;101638.47;5109100;27;20044;-75
2022/05/19 07:11:05;;;;;;;9.50;5.97;;;;;;;24.82;50.42;101643.69;5109259;28;20043;-75
2022/05/19 07:13:32;;;;;;;10.32;6.07;;;;;;;24.46;51.70;101646.28;5101111;28;20097;-74
2022/05/19 07:15:59;;;;;;;7.13;5.57;;;;;;;24.47;53.38;101641.72;5109503;28;20100;-74
2022/05/19 07:18:26;;;;;;;8.13;5.85;;;;;;;23.42;53.83;101632.88;5109116;27;20131;-75
2022/05/19 07:20:53;;;;;;;7.22;5.55;;;;;;;23.81;52.34;101638.22;5108561;27;20128;-74
2022/05/19 07:23:21;;;;;;;7.85;5.40;;;;;;;24.08;52.21;101628.44;5108798;27;20093;-74
2022/05/19 07:25:48;;;;;;;10.13;5.55;;;;;;;24.20;51.68;101639.88;5108915;28;20044;-74
2022/05/19 07:28:17;;;;;;;7.22;5.43;;;;;;;23.86;51.88;101634.13;5108881;27;20539;-74
2022/05/19 07:30:46;;;;;;;7.53;5.90;;;;;;;24.36;54.14;101633.88;5108056;27;20047;-74
2022/05/19 07:33:14;;;;;;;8.05;5.18;;;;;;;24.67;50.87;101638.84;5109207;28;20062;-75
2022/05/19 07:35:42;;;;;;;7.18;5.45;;;;;;;25.31;52.41;101637.06;5109157;27;20506;-74
2022/05/19 07:38:10;;;;;;;8.52;5.28;;;;;;;26.30;47.99;101635.88;5109400;27;20063;-74
2022/05/19 07:40:37;;;;;;;8.85;5.40;;;;;;;26.09;47.34;101633.53;5108121;27;20039;-74
2022/05/19 07:45:44;;;;;;;8.52;5.45;;;;;;;26.36;47.70;101640.59;5094727;28;20043;-75
2022/05/19 07:48:10;;;;;;;8.23;5.93;;;;;;;26.53;46.70;101634.34;5107037;28;20105;-75
2022/05/19 07:50:37;;;;;;;7.43;5.50;;;;;;;25.03;50.76;101642.47;5108145;28;20081;-75
2022/05/19 07:53:04;;;;;;;10.05;5.18;;;;;;;25.41;50.52;101638.69;5108989;27;20104;-74
2022/05/19 07:55:32;;;;;;;7.75;5.93;;;;;;;26.05;49.87;101634.88;5108483;27;20088;-75
2022/05/19 07:57:58;;;;;;;14.15;6.28;;;;;;;26.30;48.63;101633.19;5118979;27;20035;-75
2022/05/19 08:00:25;;;;;;;9.70;5.43;;;;;;;26.23;49.49;101635.69;5108450;27;20048;-74
2022/05/19 08:02:51;;;;;;;8.93;5.32;;;;;;;25.39;51.15;101639.81;5109433;27;20063;-74
2022/05/19 08:05:17;;;;;;;6.95;4.97;;;;;;;25.78;51.28;101629.63;5109292;27;20047;-75
2022/05/19 08:07:44;;;;;;;9.15;5.60;;;;;;;26.20;49.74;101624.41;5108558;27;20096;-75
2022/05/19 08:10:23;;;;;;;7.50;5.03;;;;;;;26.61;46.79;101626.28;5110984;27;20116;-75
2022/05/19 08:15:37;;;;;;;9.23;5.13;;;;;;;26.98;46.61;101625.94;5103238;27;20491;-75
2022/05/19 08:18:06;;;;;;;7.43;5.28;;;;;;;26.58;45.21;101621.22;5112552;27;20049;-75
2022/05/19 08:20:34;;;;;;;8.30;5.25;;;;;;;25.70;47.57;101616.13;5107163;27;20052;-74
2022/05/19 08:23:01;;;;;;;7.80;5.50;;;;;;;25.45;48.18;101621.25;5097392;28;20051;-75
2022/05/19 08:25:28;;;;;;;8.77;5.13;;;;;;;26.57;48.41;101622.22;5095742;27;20097;-75
2022/05/19 08:27:57;;;;;;;6.70;5.32;;;;;;;27.42;45.72;101623.84;5099942;27;20529;-75
2022/05/19 08:30:24;;;;;;;13.68;5.35;;;;;;;27.32;45.20;101623.97;5113002;27;20040;-75
2022/05/19 08:32:51;;;;;;;11.52;5.07;;;;;;;26.96;43.43;101618.03;5119932;27;20039;-74
2022/05/19 08:35:18;;;;;;;7.15;4.85;;;;;;;27.62;42.66;101611.75;5134492;27;20519;-74
2022/05/19 08:37:45;;;;;;;11.23;5.45;;;;;;;26.96;43.78;101620.72;5122196;27;20036;-74
2022/05/19 08:40:12;;;;;;;5.95;4.88;;;;;;;27.30;43.98;101620.63;5112286;27;20051;-74
2022/05/19 08:42:42;;;;;;;11.38;4.90;;;;;;;27.80;44.08;101612.41;5112783;28;20448;-74
2022/05/19 08:45:20;;;;;;;9.80;4.80;;;;;;;28.03;42.37;101607.16;5112390;27;20096;-74
2022/05/19 08:47:50;;;;;;;11.05;5.60;;;;;;;27.79;44.32;101610.72;5113497;28;20065;-74
2022/05/19 08:50:29;;;;;;;11.93;5.15;;;;;;;28.61;44.71;101600.56;5112976;27;20411;-74
2022/05/19 08:52:55;;;;;;;7.30;4.90;;;;;;;27.78;42.04;101598.25;5104809;27;20088;-74
2022/05/19 08:55:22;;;;;;;8.52;5.00;;;;;;;27.86;42.14;101603.63;5112480;27;20048;-74
2022/05/19 08:58:01;;;;;;;6.38;4.15;;;;;;;28.72;42.54;101597.50;5112149;27;20407;-74
2022/05/19 09:00:37;;;;;;;7.32;4.57;;;;;;;27.60;42.57;101608.38;5108389;27;20044;-74
2022/05/19 09:03:10;;;;;;;7.88;4.15;;;;;;;28.56;45.60;101611.91;5113418;27;20108;-74
2022/05/19 09:05:52;;;;;;;8.32;4.60;;;;;;;28.59;40.29;101598.06;5112722;28;20054;-74
2022/05/19 09:08:26;;;;;;;11.27;4.80;;;;;;;27.76;41.87;101596.72;5113317;28;20032;-74
2022/05/19 09:11:02;;;;;;;8.10;4.70;;;;;;;27.91;41.92;101587.78;5112212;28;20100;-76
2022/05/19 09:13:36;;;;;;;8.65;4.38;;;;;;;27.74;41.61;101590.69;5112874;27;20047;-80
2022/05/19 09:16:12;;;;;;;6.68;4.72;;;;;;;28.35;43.37;101590.06;5112890;27;20538;-76
2022/05/19 09:18:42;;;;;;;7.20;4.47;;;;;;;28.28;43.24;101594.47;5113422;27;20039;-75
2022/05/19 09:21:08;;;;;;;7.72;4.20;;;;;;;27.96;41.59;101584.59;5111919;27;20426;-76
2022/05/19 09:23:36;;;;;;;6.90;4.57;;;;;;;27.61;41.58;101582.25;5101393;27;20102;-76
2022/05/19 09:26:26;;;;;;;8.15;4.30;;;;;;;27.39;42.26;101575.66;5133206;27;20050;-76
2022/05/19 09:28:56;;;;;;;11.23;4.38;;;;;;;27.80;43.66;101584.59;5120205;27;20105;-76
2022/05/19 09:31:38;;;;;;;8.80;4.28;;;;;;;27.74;41.48;101575.38;5112184;27;20050;-75
2022/05/19 09:34:06;;;;;;;;;;;;;;;27.31;42.65;101579.19;5094911;28;20055;-75
2022/05/19 09:36:38;;;;;;;8.63;4.10;;;;;;;28.09;42.21;101567.88;5111113;27;19969;-75
2022/05/19 09:39:06;;;;;;;7.28;4.47;;;;;;;28.27;44.08;101574.75;5111724;27;20120;-76
2022/05/19 09:41:37;;;;;;;7.82;3.95;;;;;;;28.21;42.42;101571.91;5111151;27;20059;-76
2022/05/19 09:44:05;;;;;;;10.38;3.67;;;;;;;28.31;41.50;101567.13;5112119;28;20048;-76
2022/05/19 09:46:40;;;;;;;8.00;3.80;;;;;;;28.45;39.48;101566.44;5111899;27;20457;-76
2022/05/19 09:49:16;;;;;;;5.50;3.72;;;;;;;28.04;39.30;101571.09;5110550;28;20039;-76
2022/05/19 09:51:45;;;;;;;6.38;3.80;;;;;;;28.13;40.47;101569.22;5111374;27;20051;-76
2022/05/19 09:54:12;;;;;;;5.60;3.17;;;;;;;28.92;40.75;101572.59;5111497;27;20051;-76
2022/05/19 09:56:45;;;;;;;9.40;3.42;;;;;;;28.10;39.70;101567.72;5111785;27;20039;-77
2022/05/19 09:59:15;;;;;;;6.03;3.55;;;;;;;28.18;39.82;101559.63;5100056;27;20052;-77
2022/05/19 10:01:46;;;;;;;7.78;3.55;;;;;;;28.33;39.80;101565.13;5111456;27;20109;-77
2022/05/19 10:04:16;;;;;;;4.70;3.28;;;;;;;28.31;39.42;101561.75;5111636;27;20047;-77
2022/05/19 10:06:51;;;;;;;4.88;3.15;;;;;;;28.28;38.43;101570.19;5111012;27;20043;-77
2022/05/19 10:09:21;;;;;;;4.97;3.20;;;;;;;28.30;37.61;101560.94;5106793;27;20043;-77
2022/05/19 10:11:49;;;;;;;8.90;3.42;;;;;;;28.82;37.19;101557.66;5110926;27;20035;-76
2022/05/19 10:14:18;;;;;;;5.13;3.00;;;;;;;28.96;37.57;101551.50;5110387;27;20449;-77
2022/05/19 10:16:57;;;;;;;4.60;3.20;;;;;;;28.91;36.64;101553.88;5110094;27;20073;-77
2022/05/19 10:19:36;;;;;;;6.78;3.28;;;;;;;29.06;36.23;101545.84;5101309;27;20055;-78
2022/05/19 10:22:25;;;;;;;5.80;3.30;;;;;;;29.28;37.00;101547.72;5111622;27;20555;-77
2022/05/19 10:25:08;;;;;;;8.55;3.25;;;;;;;29.44;36.40;101543.03;5104255;27;20480;-77
2022/05/19 10:33:29;;;;;;;4.53;2.80;;;;;;;29.38;36.19;101534.78;5110643;27;20473;-75
2022/05/19 10:36:11;;;;;;;19.60;3.88;;;;;;;29.66;36.69;101529.66;5101961;27;20052;-75
2022/05/19 10:38:44;;;;;;;;;;;;;;;29.45;35.77;101531.19;5101886;27;20101;-75
2022/05/19 10:41:23;;;;;;;4.75;3.10;;;;;;;28.74;35.53;101528.84;5111465;27;19923;-74
2022/05/19 10:44:09;;;;;;;6.80;3.63;;;;;;;28.43;35.88;101522.59;5101848;27;20069;-75
2022/05/19 10:46:49;;;;;;;8.38;3.55;;;;;;;28.43;36.63;101525.28;5110716;27;20448;-76
2022/05/19 10:49:55;;;;;;;8.40;3.30;;;;;;;29.06;37.15;101513.44;5111001;27;20095;-77
2022/05/19 10:52:33;;;;;;;5.38;3.20;;;;;;;29.80;36.44;101496.38;5096561;27;20040;-76
2022/05/19 10:55:10;;;;;;;11.80;3.10;;;;;;;30.24;35.51;101507.19;5105319;27;20067;-76
2022/05/19 10:57:57;;;;;;;6.60;3.28;;;;;;;29.93;34.52;101491.22;5110840;27;20100;-76
2022/05/19 11:00:32;;;;;;;7.22;3.65;;;;;;;29.47;34.75;101490.47;5111002;27;20515;-76
2022/05/19 11:03:24;;;;;;;5.38;3.60;;;;;;;29.29;35.41;101495.38;5111838;27;20596;-76
2022/05/19 11:05:59;;;;;;;;;;;;;;;29.31;36.00;101491.47;5100925;27;20040;-76
2022/05/19 11:08:39;;;;;;;5.88;3.67;;;;;;;29.29;36.58;101492.69;5124317;27;20264;-76
2022/05/19 11:11:17;;;;;;;7.63;3.30;;;;;;;29.37;35.55;101474.53;5126794;27;20046;-76
2022/05/19 11:13:55;;;;;;;5.65;3.30;;;;;;;28.99;35.86;101470.13;5111154;27;20112;-77
2022/05/19 11:16:34;;;;;;;5.22;3.42;;;;;;;28.82;35.73;101487.47;5111313;28;20411;-76
2022/05/19 11:19:07;;;;;;;6.88;3.42;;;;;;;29.26;36.80;101483.06;5102744;27;20040;-76
2022/05/19 11:21:39;;;;;;;6.93;3.63;;;;;;;29.10;35.26;101480.50;5110445;27;20053;-76
2022/05/19 11:24:07;;;;;;;;;;;;;;;29.61;36.79;101473.44;5114754;27;20046;-76
2022/05/19 11:26:38;;;;;;;12.60;4.63;;;;;;;30.14;37.30;101479.59;5131939;27;19919;-75
2022/05/19 11:29:22;;;;;;;6.13;3.30;;;;;;;30.20;34.11;101471.56;5121828;27;20493;-76
2022/05/19 11:31:57;;;;;;;4.90;3.20;;;;;;;30.79;34.82;101466.84;5102802;27;20100;-76
2022/05/19 11:34:31;;;;;;;7.00;3.60;;;;;;;30.18;33.11;101459.28;5110435;28;20065;-76
2022/05/19 11:37:06;;;;;;;6.88;3.55;;;;;;;29.91;33.70;101461.63;5110360;27;20039;-76
2022/05/19 11:39:39;;;;;;;8.63;3.38;;;;;;;29.55;33.70;101454.44;5108942;27;20436;-77
2022/05/19 11:42:23;;;;;;;8.00;3.00;;;;;;;29.79;35.25;101452.28;5110842;27;20674;-76